KFXE/FXE METAR and TAF weather

Enter ICAO airport designator
Station Type Date Time Source
KFXE METAR 2019/09/20 08:53 UTC NOAA

KFXE 200853Z AUTO 06009KT 10SM FEW030 FEW038 26/21 A2994 RMK AO2 SLP139 T02610206 56008


Station Type Date Time Source
KFXE Decoded METAR 2019/09/20 08:53 UTC NOAA

FORT LAUDERDALE EXECUTIVE, FL, United States (KFXE) 26-12N 080-11W 6M
Sep 20, 2019 - 04:53 AM EDT / 2019.09.20 0853 UTC
Wind: from the ENE (060 degrees) at 10 MPH (9 KT):0
Visibility: 10 mile(s):0
Sky conditions: mostly clear
Temperature: 79.0 F (26.1 C)
Dew Point: 69.1 F (20.6 C)
Relative Humidity: 71%
Pressure (altimeter): 29.94 in. Hg (1013 hPa)
Pressure tendency: 0.02 inches (0.8 hPa) lower than three hours ago
ob: KFXE 200853Z AUTO 06009KT 10SM FEW030 FEW038 26/21 A2994 RMK AO2 SLP139 T02610206 56008
cycle: 9

Station Type Date Time Source
KFXE TAF 2019/09/20 09:54 UTC NOAA

TAF
AMD KFXE 200850Z 2009/2106 07013G20KT P6SM VCSH SCT030
FM201500 07015G25KT P6SM VCSH SCT030 BKN050

Example: see airport list